Smicksburg, Pennsylvania
Current Conditions -  °F | °C
As of 4:55 PM on Friday 28 Nov 2014 (Local Time) from KIDI Reporting Station
Scattered Clouds Scattered Clouds  
Wind Chill: 25°   Ceiling: Unl
Heat Index: 25°   Visibility: 10mi
Dew Point: 14°   Wind: 3mph
Humidity: 64%   Direction: 290°WNW
Pressure: 30.25"   Gusts: NA
Location:  40.87°N, 79.17°W
Report Text: KIDI 282155Z AUTO 29003KT 10SM SCT036 M04/M10 A3025 RMK A01
Loading
Personal Weather Stations






























Interactive Weather Map New forecast layout! Learn more

10-Day Weather Forecast

Advertisements
Track Severe Weather on mobile